createdAt,value
2022-07-28T04:00:35.704Z,1.30
2022-07-28T04:11:40.582Z,1.70
2022-07-28T04:22:40.450Z,1.40
2022-07-28T04:33:40.325Z,1.70
2022-07-28T04:44:40.202Z,1.80
2022-07-28T04:55:40.089Z,1.60
2022-07-28T05:06:39.960Z,1.30
2022-07-28T05:17:39.831Z,1.70
2022-07-28T05:28:39.712Z,1.50
2022-07-28T05:39:39.591Z,1.90
2022-07-28T05:50:39.468Z,1.50
2022-07-28T06:01:39.405Z,1.30
2022-07-28T06:12:39.218Z,2.00
2022-07-28T06:23:39.106Z,1.90
2022-07-28T06:34:38.998Z,1.60
2022-07-28T06:45:39.852Z,1.40
2022-07-28T06:56:38.746Z,1.80
2022-07-28T07:07:42.982Z,1.40
2022-07-28T07:18:38.490Z,1.80
2022-07-28T07:29:38.365Z,1.70
2022-07-28T07:40:38.246Z,3.00
2022-07-28T07:51:38.165Z,1.50
2022-07-28T08:02:38.009Z,2.10
2022-07-28T08:13:37.879Z,2.20
2022-07-28T08:24:37.758Z,2.40
2022-07-28T08:35:37.644Z,2.20
2022-07-28T08:46:37.608Z,2.00
2022-07-28T08:57:37.398Z,2.50
2022-07-28T09:08:37.283Z,2.80
2022-07-28T09:19:37.161Z,3.10
2022-07-28T09:30:37.028Z,3.90
2022-07-28T09:41:36.910Z,3.20
2022-07-28T09:52:36.810Z,3.50
2022-07-28T10:03:36.671Z,2.80
2022-07-28T10:14:36.589Z,3.40
2022-07-28T10:25:36.440Z,3.40
2022-07-28T10:36:36.361Z,3.60
2022-07-28T10:47:36.577Z,3.10
2022-07-28T10:58:36.067Z,2.50
2022-07-28T11:09:35.954Z,2.70
2022-07-28T11:20:36.846Z,2.70
2022-07-28T11:21:39.502Z,2.60
2022-07-28T11:22:32.114Z,3.10
2022-07-28T11:33:36.682Z,3.10
2022-07-28T11:34:31.672Z,3.30
2022-07-28T11:35:30.677Z,2.60
2022-07-28T11:46:37.572Z,2.10
2022-07-28T11:57:35.432Z,2.20
2022-07-28T11:58:30.424Z,2.40
2022-07-28T11:59:36.904Z,2.90
2022-07-28T12:10:53.899Z,2.80
2022-07-28T12:11:31.288Z,2.70
2022-07-28T12:12:30.280Z,3.10
2022-07-28T12:23:45.839Z,3.10
2022-07-28T12:24:31.156Z,3.20
2022-07-28T12:25:31.113Z,3.10
2022-07-28T12:36:35.034Z,2.30
2022-07-28T12:47:34.906Z,2.30
2022-07-28T12:58:34.797Z,2.90
2022-07-28T12:59:29.781Z,2.70
2022-07-28T13:00:29.781Z,3.20
2022-07-28T13:11:45.878Z,2.50
2022-07-28T13:12:30.673Z,2.70
2022-07-28T13:13:29.633Z,3.30
2022-07-28T13:24:34.528Z,2.70
2022-07-28T13:25:29.503Z,3.00
2022-07-28T13:26:29.499Z,3.40
2022-07-28T13:37:34.389Z,3.00
2022-07-28T13:38:29.369Z,3.00
2022-07-28T13:39:29.401Z,3.40
2022-07-28T13:50:34.234Z,2.80
2022-07-28T14:01:35.069Z,2.40
2022-07-28T14:12:34.996Z,2.70
2022-07-28T14:23:33.921Z,2.70
2022-07-28T14:34:34.348Z,2.80
2022-07-28T14:45:33.647Z,2.90
2022-07-28T14:56:33.515Z,3.10
2022-07-28T15:07:33.405Z,2.50
2022-07-28T15:18:33.570Z,2.60
2022-07-28T15:29:35.542Z,3.60
2022-07-28T15:40:33.035Z,2.90
2022-07-28T15:51:32.921Z,4.10
2022-07-28T16:02:32.825Z,2.60
2022-07-28T16:13:36.514Z,2.80
2022-07-28T16:24:32.566Z,2.10
2022-07-28T16:35:32.450Z,2.20
2022-07-28T16:46:32.354Z,2.90
2022-07-28T16:57:32.197Z,2.90
2022-07-28T17:08:32.104Z,2.50
2022-07-28T17:19:32.863Z,2.70
2022-07-28T17:30:31.833Z,2.00
2022-07-28T17:41:31.713Z,2.10
2022-07-28T17:52:31.594Z,2.20
2022-07-28T18:03:31.475Z,2.30
2022-07-28T18:14:31.671Z,2.60
2022-07-28T18:25:31.240Z,1.70
2022-07-28T18:36:31.119Z,1.80
2022-07-28T18:47:31.002Z,2.20
2022-07-28T18:58:30.879Z,2.80
2022-07-28T19:09:30.773Z,1.90
2022-07-28T19:20:30.672Z,2.10
2022-07-28T19:31:30.558Z,2.10
2022-07-28T19:42:30.457Z,2.90
2022-07-28T19:53:31.882Z,2.60
2022-07-28T20:04:31.156Z,2.60
2022-07-28T20:15:30.036Z,2.80
2022-07-28T20:26:29.927Z,2.90
2022-07-28T20:37:36.528Z,3.20
2022-07-28T20:48:29.675Z,3.20
